Main page
METAR-TAF:

METAR-TAF

Airports :

Kuwait City, Kuwait

Kuwait International Airport

latitude: 29-13N, longitude: 047-59E, elevation: 55 m

Current weather observation

The report was made 53 minutes ago, at 11:00 UTC
Wind 4 kt from the East
Temperature 44°C
Humidity 14%
Pressure 998 hPa
Visibility 10 km or more
no clouds below 1500 m and no cumulonimbus

METAR: OKBK 211100Z 09004KT CAVOK 44/11 Q0998 NOSIG

Time: 14:53 (11:53 UTC)

Forecast

The report was made 1 hour and 8 minutes ago, at 10:45 UTC
Forecast valid from 21 at 12 UTC to 22 at 18 UTC
Wind 12 kt from the East/Southeast
Visibility: 6000 m
Temporary
from 21 at 12 UTC to 21 at 20 UTC
Wind 3 kt from variable directions
haze

TAF: OKBK 211045Z 2112/2218 12012KT 6000 NSC TEMPO 2112/2120 VRB03KT 4 000 HZ

Weather observations and forecasts of more than 4000 airports (METAR and TAF reports).

The available stations are represented by yellow and red dots on the map.

Hover mouse over dot to see the name of the station.

Then click to see weather observations and forecasts.

To change the map : click on the green buttons with a black cross to zoom in, on the green button with a dash to zoom out, or on the green arrows for adjacent maps.


METAR-TAF: